To NAV CANADA Home Page Login to a new session Search on AWWS site Feedback and Comments Disclaimer Vers la page française équivalente Tips FAQ What's new on the site To the Forecasts and Observations / NOTAM section To "File a Flight Plan" website Publications and other links Update of the User's profile FIC Telephone Numbers My Weather Data Folder Route Weather Data Regional Weather Data Local Weather Data To the Forecasts and Observations / NOTAM section
Request Generated 04/23/2014 at 22:04:18 UTC . Weather information available at that time is displayed.

METAR/TAF

MAYO/YT    

METAR CYMA 232100Z 08012G18KT 20SM OVC050 07/M03 A2981 RMK SC8
SLP120=
METAR CYMA 232000Z 10012G18KT 20SM BKN050 06/M03 A2981 RMK SC7
SLP120=
METAR CYMA 231900Z 07012G18KT 20SM BKN050 06/M04 A2982 RMK SC6
SLP123=

TAF CYMA 231738Z 2318/2406 07010KT P6SM BKN050
BECMG 2403/2405 04005KT
RMK NXT FCST BY 240000Z=
Your time UTC time
Weather data provided by Environment Canada and NAV CANADA